Time;durP1;ratioP1;P1;durP2;ratioP2;P2;SDS_P1;SDS_P2;PMS_P1;PMS_P2;Temp;Humidity;BMP_temperature;BMP_pressure;BME280_temperature;BME280_humidity;BME280_pressure;Samples;Min_cycle;Max_cycle;Signal;HPM_P1;HPM_P2
2021/07/15 00:00:37;;;;;;;;;;;16.00;99.90;;;;;;4989210;28;19995;-59
2021/07/15 00:03:04;;;;;;;;;;;15.90;99.90;;;;;;4989249;28;20148;-59
2021/07/15 00:05:30;;;;;;;;;;;15.80;99.90;;;;;;4989605;28;19997;-59
2021/07/15 00:07:55;;;;;;;;;;;15.80;99.90;;;;;;4989192;28;20527;-58
2021/07/15 00:10:27;;;;;;;;;;;15.80;99.90;;;;;;4988835;28;19990;-59
2021/07/15 00:12:53;;;;;;;;;;;16.00;99.90;;;;;;4987959;28;20077;-59
2021/07/15 00:15:21;;;;;;;;;;;15.90;99.90;;;;;;4989432;28;20074;-57
2021/07/15 00:17:47;;;;;;;;;;;15.90;99.90;;;;;;4989091;28;19989;-58
2021/07/15 00:20:14;;;;;;;;;;;15.70;99.90;;;;;;4989048;28;20365;-58
2021/07/15 00:22:40;;;;;;;;;;;15.80;99.90;;;;;;4989279;28;19990;-58
2021/07/15 00:25:11;;;;;;;;;;;15.80;99.90;;;;;;4988884;28;19990;-58
2021/07/15 00:27:38;;;;;;;;;;;15.80;99.90;;;;;;4989594;28;20389;-58
2021/07/15 00:30:04;;;;;;;;;;;15.70;99.90;;;;;;4984624;28;19987;-59
2021/07/15 00:32:30;;;;;;;;;;;15.70;99.90;;;;;;4989881;28;20069;-59
2021/07/15 00:34:56;;;;;;;;;;;15.70;99.90;;;;;;4987540;28;20081;-59
2021/07/15 00:37:21;;;;;;;;;;;15.60;99.90;;;;;;4988102;28;19987;-59
2021/07/15 00:39:48;;;;;;;;;;;15.60;99.90;;;;;;4987837;28;19993;-58
2021/07/15 00:42:14;;;;;;;;;;;15.50;99.90;;;;;;4988402;28;20496;-59
2021/07/15 00:44:40;;;;;;;;;;;15.60;99.90;;;;;;4988797;28;20445;-58
2021/07/15 00:47:05;;;;;;;;;;;15.60;99.90;;;;;;4987920;28;19994;-58
2021/07/15 00:49:31;;;;;;;;;;;15.60;99.90;;;;;;4988428;28;19988;-58
2021/07/15 00:51:57;;;;;;;;;;;15.60;99.90;;;;;;4988169;28;20033;-58
2021/07/15 00:54:24;;;;;;;;;;;15.70;99.90;;;;;;4988015;28;20473;-58
2021/07/15 00:56:50;;;;;;;;;;;15.60;99.90;;;;;;4986093;28;19995;-57
2021/07/15 00:59:20;;;;;;;;;;;15.60;99.90;;;;;;4968882;28;20503;-58
2021/07/15 01:01:47;;;;;;;;;;;15.70;99.90;;;;;;4968405;28;20006;-58
2021/07/15 01:04:13;;;;;;;;;;;15.70;99.90;;;;;;4968882;28;20002;-59
2021/07/15 01:06:39;;;;;;;;;;;15.70;99.90;;;;;;4968698;28;19987;-58
2021/07/15 01:09:04;;;;;;;;;;;15.70;99.90;;;;;;4968054;28;20423;-58
2021/07/15 01:11:46;;;;;;;;;;;15.70;99.90;;;;;;4968369;28;19989;-58
2021/07/15 01:14:18;;;;;;;;;;;15.70;99.90;;;;;;4968519;28;19987;-58
2021/07/15 01:17:07;;;;;;;;;;;15.70;99.90;;;;;;4968381;28;20045;-58
2021/07/15 01:19:41;;;;;;;;;;;15.70;99.90;;;;;;4967592;28;19994;-57
2021/07/15 01:22:30;;;;;;;;;;;15.60;99.90;;;;;;4967575;28;19986;-58
2021/07/15 01:25:13;;;;;;;;;;;15.70;99.90;;;;;;4967707;28;20138;-57
2021/07/15 01:27:54;;;;;;;;;;;15.60;99.90;;;;;;4968082;28;20007;-58
2021/07/15 01:30:26;;;;;;;;;;;15.60;99.90;;;;;;4974243;28;20061;-58
2021/07/15 01:32:52;;;;;;;;;;;15.60;99.90;;;;;;4987387;28;19991;-58
2021/07/15 01:35:20;;;;;;;;;;;15.60;99.90;;;;;;4987684;28;19987;-58
2021/07/15 01:37:52;;;;;;;;;;;15.60;99.90;;;;;;4987036;28;20461;-58
2021/07/15 01:40:20;;;;;;;;;;;15.50;99.90;;;;;;4987417;28;19999;-58
2021/07/15 01:42:48;;;;;;;;;;;15.60;99.90;;;;;;4987026;28;19994;-57
2021/07/15 01:45:14;;;;;;;;;;;15.60;99.90;;;;;;4987220;28;20642;-57
2021/07/15 01:47:40;;;;;;;;;;;15.60;99.90;;;;;;4986816;28;20006;-57
2021/07/15 01:50:05;;;;;;;;;;;15.60;99.90;;;;;;4986739;28;20448;-57
2021/07/15 01:52:31;;;;;;;;;;;15.60;99.90;;;;;;4987124;28;20006;-58
2021/07/15 01:54:57;;;;;;;;;;;15.60;99.90;;;;;;4987681;28;19991;-58
2021/07/15 01:57:23;;;;;;;;;;;15.70;99.90;;;;;;4986145;28;20053;-58
2021/07/15 01:59:49;;;;;;;;;;;15.70;99.90;;;;;;4986582;28;20003;-58
2021/07/15 02:02:15;;;;;;;;;;;15.80;99.90;;;;;;4987318;28;20388;-57
2021/07/15 02:04:41;;;;;;;;;;;15.80;99.90;;;;;;4987256;28;20372;-58
2021/07/15 02:07:08;;;;;;;;;;;15.80;99.90;;;;;;4986817;28;19982;-58
2021/07/15 02:09:36;;;;;;;;;;;15.70;99.90;;;;;;4986661;28;19987;-58
2021/07/15 02:12:02;;;;;;;;;;;15.70;99.90;;;;;;4987293;28;20018;-58
2021/07/15 02:14:28;;;;;;;;;;;15.60;99.90;;;;;;4986517;28;19987;-57
2021/07/15 02:16:58;;;;;;;;;;;15.60;99.90;;;;;;4986992;28;20640;-58
2021/07/15 02:19:24;;;;;;;;;;;15.70;99.90;;;;;;4987048;28;19990;-57
2021/07/15 02:21:51;;;;;;;;;;;15.80;99.90;;;;;;4986683;28;20538;-58
2021/07/15 02:24:18;;;;;;;;;;;15.70;99.90;;;;;;4986397;28;19983;-59
2021/07/15 02:26:45;;;;;;;;;;;15.70;99.90;;;;;;4986839;28;20061;-58
2021/07/15 02:29:10;;;;;;;;;;;15.60;99.90;;;;;;4985095;28;20006;-58
2021/07/15 02:31:40;;;;;;;;;;;15.80;99.90;;;;;;4971414;28;19988;-58
2021/07/15 02:34:08;;;;;;;;;;;15.80;99.90;;;;;;4982072;28;19987;-59
2021/07/15 02:36:34;;;;;;;;;;;15.80;99.90;;;;;;4986797;28;19987;-59
2021/07/15 02:39:01;;;;;;;;;;;15.80;99.90;;;;;;4986203;28;20422;-58
2021/07/15 02:41:28;;;;;;;;;;;15.70;99.90;;;;;;4986546;28;19983;-58
2021/07/15 02:43:53;;;;;;;;;;;15.80;99.90;;;;;;4986696;28;19990;-59
2021/07/15 02:46:20;;;;;;;;;;;15.80;99.90;;;;;;4987005;28;19990;-59
2021/07/15 02:48:46;;;;;;;;;;;15.80;99.90;;;;;;4986312;28;20011;-58
2021/07/15 02:51:12;;;;;;;;;;;15.80;99.90;;;;;;4987206;28;20069;-59
2021/07/15 02:53:39;;;;;;;;;;;15.80;99.90;;;;;;4986625;28;20129;-58
2021/07/15 02:56:13;;;;;;;;;;;15.90;99.90;;;;;;4986753;28;20487;-58
2021/07/15 02:58:43;;;;;;;;;;;15.80;99.90;;;;;;4986000;28;19997;-59
2021/07/15 03:01:13;;;;;;;;;;;15.80;99.90;;;;;;4990008;28;19995;-58
2021/07/15 03:04:02;;;;;;;;;;;15.80;99.90;;;;;;4991292;28;20365;-59
2021/07/15 03:06:33;;;;;;;;;;;15.90;99.90;;;;;;4970609;28;20406;-59
2021/07/15 03:09:01;;;;;;;;;;;15.80;99.90;;;;;;4989903;28;20562;-58
2021/07/15 03:11:32;;;;;;;;;;;15.90;99.90;;;;;;4989796;28;20006;-57
2021/07/15 03:13:58;;;;;;;;;;;15.80;99.90;;;;;;4990015;28;20039;-58
2021/07/15 03:16:23;;;;;;;;;;;15.80;99.90;;;;;;4990260;28;20394;-58
2021/07/15 03:18:49;;;;;;;;;;;15.90;99.90;;;;;;4989788;28;20069;-58
2021/07/15 03:21:16;;;;;;;;;;;15.90;99.90;;;;;;4990209;28;20009;-58
2021/07/15 03:23:42;;;;;;;;;;;15.90;99.90;;;;;;4989259;28;20061;-58
2021/07/15 03:26:08;;;;;;;;;;;15.90;99.90;;;;;;4988016;28;19982;-58
2021/07/15 03:28:36;;;;;;;;;;;15.90;99.90;;;;;;4989601;28;20468;-58
2021/07/15 03:31:06;;;;;;;;;;;15.90;99.90;;;;;;4989454;28;20082;-58
2021/07/15 03:33:33;;;;;;;;;;;16.00;99.90;;;;;;4989773;28;20006;-58
2021/07/15 03:35:59;;;;;;;;;;;16.00;99.90;;;;;;4989611;28;19989;-58
2021/07/15 03:38:25;;;;;;;;;;;16.10;99.90;;;;;;4989551;28;20242;-59
2021/07/15 03:40:50;;;;;;;;;;;16.00;99.90;;;;;;4989537;28;20030;-59
2021/07/15 03:43:17;;;;;;;;;;;16.00;99.90;;;;;;4989357;28;20449;-58
2021/07/15 03:45:43;;;;;;;;;;;15.90;99.90;;;;;;4989626;28;19983;-58
2021/07/15 03:48:09;;;;;;;;;;;15.90;99.90;;;;;;4989529;28;20053;-58
2021/07/15 03:50:35;;;;;;;;;;;15.90;99.90;;;;;;4989126;28;20068;-59
2021/07/15 03:53:02;;;;;;;;;;;16.00;99.90;;;;;;4988882;28;19998;-58
2021/07/15 03:55:28;;;;;;;;;;;15.90;99.90;;;;;;4989320;28;20049;-58
2021/07/15 03:57:55;;;;;;;;;;;15.90;99.90;;;;;;4988700;28;20023;-58
2021/07/15 04:00:21;;;;;;;;;;;;;;;;;;4987669;28;20501;-58
2021/07/15 04:02:47;;;;;;;;;;;;;;;;;;4988508;28;19994;-58
2021/07/15 04:05:13;;;;;;;;;;;16.00;99.90;;;;;;4989430;28;20473;-58
2021/07/15 04:07:39;;;;;;;;;;;16.10;99.90;;;;;;4988419;28;20450;-59
2021/07/15 04:10:05;;;;;;;;;;;16.10;99.90;;;;;;4988688;28;20037;-58
2021/07/15 04:12:31;;;;;;;;;;;16.10;99.90;;;;;;4988287;28;20365;-58
2021/07/15 04:15:10;;;;;;;;;;;16.00;99.90;;;;;;4988792;28;19983;-58
2021/07/15 04:17:47;;;;;;;;;;;15.90;99.90;;;;;;4988884;28;20426;-58
2021/07/15 04:20:14;;;;;;;;;;;16.00;99.90;;;;;;4988716;28;19990;-58
2021/07/15 04:22:42;;;;;;;;;;;15.90;99.90;;;;;;4989645;28;20547;-58
2021/07/15 04:25:09;;;;;;;;;;;16.00;99.90;;;;;;4986082;28;19990;-58
2021/07/15 04:27:36;;;;;;;;;;;16.00;99.90;;;;;;4988940;28;20013;-58
2021/07/15 04:30:05;;;;;;;;;;;16.00;99.90;;;;;;4985748;28;20507;-59
2021/07/15 04:32:42;;;;;;;;;;;16.00;99.90;;;;;;4988262;28;19987;-58
2021/07/15 04:35:09;;;;;;;;;;;16.00;99.90;;;;;;4988297;28;19983;-58
2021/07/15 04:37:36;;;;;;;;;;;16.00;99.90;;;;;;4988379;28;20399;-59
2021/07/15 04:40:02;;;;;;;;;;;16.10;99.90;;;;;;4986461;28;19990;-59
2021/07/15 04:42:28;;;;;;;;;;;16.00;99.90;;;;;;4988302;28;20016;-58
2021/07/15 04:44:55;;;;;;;;;;;16.00;99.90;;;;;;4988770;28;19987;-57
2021/07/15 04:47:22;;;;;;;;;;;16.00;99.90;;;;;;4988856;28;20420;-58
2021/07/15 04:49:48;;;;;;;;;;;16.00;99.90;;;;;;4987991;28;19983;-58
2021/07/15 04:52:16;;;;;;;;;;;16.00;99.90;;;;;;4987667;28;19987;-58
2021/07/15 04:54:42;;;;;;;;;;;16.00;99.90;;;;;;4988033;28;20001;-58
2021/07/15 04:57:10;;;;;;;;;;;16.10;99.90;;;;;;4987876;28;20206;-57
2021/07/15 04:59:36;;;;;;;;;;;16.10;99.90;;;;;;4987114;28;19991;-58
2021/07/15 05:02:02;;;;;;;;;;;16.10;99.90;;;;;;4986809;28;19998;-59
2021/07/15 05:04:29;;;;;;;;;;;16.10;99.90;;;;;;4988016;28;19983;-58
2021/07/15 05:06:56;;;;;;;;;;;16.10;99.90;;;;;;4988467;28;19997;-58
2021/07/15 05:09:22;;;;;;;;;;;16.10;99.90;;;;;;4988502;28;20105;-57
2021/07/15 05:11:48;;;;;;;;;;;16.10;99.90;;;;;;4987379;28;20069;-58
2021/07/15 05:14:14;;;;;;;;;;;16.00;99.90;;;;;;4987829;28;20078;-58
2021/07/15 05:16:40;;;;;;;;;;;16.10;99.90;;;;;;4987891;28;19987;-58
2021/07/15 05:19:06;;;;;;;;;;;16.00;99.90;;;;;;4987954;28;19987;-58
2021/07/15 05:21:32;;;;;;;;;;;16.10;99.90;;;;;;4987783;28;20476;-58
2021/07/15 05:23:57;;;;;;;;;;;16.10;99.90;;;;;;4986666;28;19987;-58
2021/07/15 05:26:24;;;;;;;;;;;16.10;99.90;;;;;;4988236;28;19990;-58
2021/07/15 05:28:50;;;;;;;;;;;16.10;99.90;;;;;;4987326;28;20017;-57
2021/07/15 05:31:17;;;;;;;;;;;16.10;99.90;;;;;;4987636;28;19991;-58
2021/07/15 05:33:43;;;;;;;;;;;16.10;99.90;;;;;;4987946;28;19989;-58
2021/07/15 05:36:09;;;;;;;;;;;16.20;99.90;;;;;;4987230;28;19983;-57
2021/07/15 05:38:38;;;;;;;;;;;16.10;99.90;;;;;;4986687;28;19991;-58
2021/07/15 05:41:06;;;;;;;;;;;16.20;99.90;;;;;;4987830;28;19990;-58
2021/07/15 05:43:32;;;;;;;;;;;16.20;99.90;;;;;;4988352;28;20452;-58
2021/07/15 05:45:57;;;;;;;;;;;16.30;99.90;;;;;;4981227;28;19987;-58
2021/07/15 05:48:23;;;;;;;;;;;16.30;99.90;;;;;;4988630;28;20014;-57
2021/07/15 05:50:49;;;;;;;;;;;16.30;99.90;;;;;;4987917;28;20089;-58
2021/07/15 05:53:14;;;;;;;;;;;16.30;99.90;;;;;;4986707;28;20006;-57
2021/07/15 05:55:40;;;;;;;;;;;16.30;99.90;;;;;;4987387;28;20029;-57
2021/07/15 05:58:05;;;;;;;;;;;16.30;99.90;;;;;;4987893;28;19990;-58
2021/07/15 06:00:31;;;;;;;;;;;16.20;99.90;;;;;;4987921;28;19991;-58
2021/07/15 06:02:56;;;;;;;;;;;16.30;99.90;;;;;;4992020;28;19997;-58
2021/07/15 06:05:22;;;;;;;;;;;16.20;99.90;;;;;;5008488;28;19983;-58
2021/07/15 06:07:49;;;;;;;;;;;16.20;99.90;;;;;;5007520;28;20006;-58
2021/07/15 06:10:15;;;;;;;;;;;16.30;99.90;;;;;;5007724;28;19994;-58
2021/07/15 06:12:41;;;;;;;;;;;16.30;99.90;;;;;;5007730;28;19986;-58
2021/07/15 06:15:06;;;;;;;;;;;16.20;99.90;;;;;;5007597;28;20037;-58
2021/07/15 06:17:32;;;;;;;;;;;16.30;99.90;;;;;;5007966;28;19986;-58
2021/07/15 06:19:58;;;;;;;;;;;16.20;99.90;;;;;;5003375;28;20078;-57
2021/07/15 06:22:23;;;;;;;;;;;16.30;99.90;;;;;;4988649;28;20873;-58
2021/07/15 06:24:49;;;;;;;;;;;16.30;99.90;;;;;;4984812;28;20100;-57
2021/07/15 06:27:15;;;;;;;;;;;16.30;99.90;;;;;;4988036;28;19995;-57
2021/07/15 06:29:40;;;;;;;;;;;16.30;99.90;;;;;;4986830;28;20354;-58
2021/07/15 06:32:06;;;;;;;;;;;16.40;99.90;;;;;;4987719;28;19986;-57
2021/07/15 06:34:31;;;;;;;;;;;16.40;99.90;;;;;;4989625;28;19987;-58
2021/07/15 06:36:57;;;;;;;;;;;16.40;99.90;;;;;;4992225;28;20022;-57
2021/07/15 06:39:24;;;;;;;;;;;16.40;99.90;;;;;;4992584;28;19982;-58
2021/07/15 06:41:49;;;;;;;;;;;16.40;99.90;;;;;;4991696;28;20626;-58
2021/07/15 06:44:15;;;;;;;;;;;16.40;99.90;;;;;;4991863;28;19991;-58
2021/07/15 06:46:41;;;;;;;;;;;16.40;99.90;;;;;;4991786;28;20026;-57
2021/07/15 06:49:06;;;;;;;;;;;16.40;99.90;;;;;;4991365;28;20025;-57
2021/07/15 06:51:33;;;;;;;;;;;16.50;99.90;;;;;;4991554;28;20034;-57
2021/07/15 06:53:59;;;;;;;;;;;16.50;99.90;;;;;;4991153;28;20053;-57
2021/07/15 06:56:24;;;;;;;;;;;16.50;99.90;;;;;;4991858;28;19991;-57
2021/07/15 06:58:50;;;;;;;;;;;16.50;99.90;;;;;;4991177;28;20049;-57
2021/07/15 07:01:16;;;;;;;;;;;16.50;99.90;;;;;;4990108;28;19991;-58
2021/07/15 07:03:42;;;;;;;;;;;16.50;99.90;;;;;;4989602;28;19991;-57
2021/07/15 07:06:08;;;;;;;;;;;16.50;99.90;;;;;;4990857;28;20408;-56
2021/07/15 07:08:34;;;;;;;;;;;16.50;99.90;;;;;;4991290;28;20034;-57
2021/07/15 07:11:00;;;;;;;;;;;16.50;99.90;;;;;;4990972;28;19987;-57
2021/07/15 07:13:27;;;;;;;;;;;16.40;99.90;;;;;;4991748;28;20070;-56
2021/07/15 07:15:52;;;;;;;;;;;16.50;99.90;;;;;;4990432;28;19997;-57
2021/07/15 07:18:20;;;;;;;;;;;16.50;99.90;;;;;;4991047;28;20101;-57
2021/07/15 07:20:46;;;;;;;;;;;16.50;99.90;;;;;;4990285;28;19995;-57
2021/07/15 07:23:13;;;;;;;;;;;16.50;99.90;;;;;;4990721;28;20105;-56
2021/07/15 07:25:40;;;;;;;;;;;16.50;99.90;;;;;;4979348;28;20041;-57
2021/07/15 07:28:05;;;;;;;;;;;16.50;99.90;;;;;;4989247;28;20393;-57
2021/07/15 07:30:31;;;;;;;;;;;16.50;99.90;;;;;;4990259;28;19991;-57
2021/07/15 07:32:57;;;;;;;;;;;16.60;99.90;;;;;;4989932;28;20081;-57
2021/07/15 07:35:23;;;;;;;;;;;16.50;99.90;;;;;;4989331;28;19983;-57
2021/07/15 07:37:49;;;;;;;;;;;16.60;99.90;;;;;;4990945;28;19995;-57
2021/07/15 07:40:15;;;;;;;;;;;16.60;99.90;;;;;;4988437;28;19999;-58
2021/07/15 07:42:41;;;;;;;;;;;16.60;99.90;;;;;;4988971;28;19983;-57
2021/07/15 07:45:07;;;;;;;;;;;16.60;99.90;;;;;;4987928;28;19983;-56
2021/07/15 07:47:33;;;;;;;;;;;16.60;99.90;;;;;;4987743;28;20006;-57
2021/07/15 07:49:59;;;;;;;;;;;16.50;99.90;;;;;;4987721;28;19983;-58
2021/07/15 07:52:25;;;;;;;;;;;16.60;99.90;;;;;;4988291;28;19995;-57
2021/07/15 07:54:51;;;;;;;;;;;16.50;99.90;;;;;;4988483;28;20462;-57
2021/07/15 07:57:16;;;;;;;;;;;16.50;99.90;;;;;;4989400;28;19991;-58
2021/07/15 07:59:43;;;;;;;;;;;16.50;99.90;;;;;;4988527;28;19994;-58
2021/07/15 08:02:09;;;;;;;;;;;16.50;99.90;;;;;;4987523;28;20016;-56
2021/07/15 08:04:36;;;;;;;;;;;16.50;99.90;;;;;;4988056;28;19998;-58
2021/07/15 08:07:02;;;;;;;;;;;16.40;99.90;;;;;;4987526;28;19991;-58
2021/07/15 08:09:30;;;;;;;;;;;16.40;99.90;;;;;;4987785;28;20436;-55
2021/07/15 08:11:57;;;;;;;;;;;16.40;99.90;;;;;;4988362;28;20090;-57
2021/07/15 08:14:23;;;;;;;;;;;16.40;99.90;;;;;;4988324;28;20445;-58
2021/07/15 08:16:49;;;;;;;;;;;16.40;99.90;;;;;;4987469;28;19982;-58
2021/07/15 08:19:15;;;;;;;;;;;16.40;99.90;;;;;;4987798;28;19999;-58
2021/07/15 08:21:40;;;;;;;;;;;16.40;99.90;;;;;;4987692;28;20385;-58
2021/07/15 08:24:06;;;;;;;;;;;16.40;99.90;;;;;;4985521;28;20369;-57
2021/07/15 08:26:31;;;;;;;;;;;16.40;99.90;;;;;;4991239;28;20383;-57
2021/07/15 08:28:57;;;;;;;;;;;16.40;99.90;;;;;;4988580;28;20006;-57
2021/07/15 08:31:23;;;;;;;;;;;16.50;99.90;;;;;;4969371;28;20087;-58
2021/07/15 08:33:48;;;;;;;;;;;16.50;99.90;;;;;;4979327;28;19991;-58
2021/07/15 08:36:15;;;;;;;;;;;16.40;99.90;;;;;;4986238;28;20048;-58
2021/07/15 08:38:41;;;;;;;;;;;16.40;99.90;;;;;;4988293;28;19987;-58
2021/07/15 08:41:07;;;;;;;;;;;16.40;99.90;;;;;;4988176;28;20369;-57
2021/07/15 08:43:33;;;;;;;;;;;16.50;99.90;;;;;;4988772;28;19994;-57
2021/07/15 08:46:00;;;;;;;;;;;16.50;99.90;;;;;;4983652;28;20452;-57
2021/07/15 08:48:27;;;;;;;;;;;16.50;99.90;;;;;;4989128;28;20380;-57
2021/07/15 08:50:52;;;;;;;;;;;16.50;99.90;;;;;;4986811;28;19991;-57
2021/07/15 08:53:20;;;;;;;;;;;16.50;99.90;;;;;;4980866;28;20010;-57
2021/07/15 08:58:16;;;;;;;;;;;16.50;99.90;;;;;;4948222;28;20453;-57
2021/07/15 09:00:42;;;;;;;;;;;16.60;99.90;;;;;;4917066;28;19987;-57
2021/07/15 09:03:09;;;;;;;;;;;16.50;99.90;;;;;;4945540;28;20001;-57
2021/07/15 09:05:35;;;;;;;;;;;16.60;99.90;;;;;;4940238;28;20137;-57
2021/07/15 09:08:01;;;;;;;;;;;16.60;99.90;;;;;;4944005;28;20500;-57
2021/07/15 09:10:27;;;;;;;;;;;16.60;99.90;;;;;;4946671;28;20005;-57
2021/07/15 09:12:53;;;;;;;;;;;16.60;99.90;;;;;;4954722;28;19990;-57
2021/07/15 09:15:19;;;;;;;;;;;16.60;99.90;;;;;;4936797;28;20006;-57
2021/07/15 09:17:45;;;;;;;;;;;16.60;99.90;;;;;;4954080;28;20032;-57
2021/07/15 09:20:15;;;;;;;;;;;16.70;99.90;;;;;;4951865;28;20576;-56
2021/07/15 09:23:00;;;;;;;;;;;16.70;99.90;;;;;;4973608;28;19998;-56
2021/07/15 09:25:28;;;;;;;;;;;16.60;99.90;;;;;;4981575;28;19987;-57
2021/07/15 09:27:53;;;;;;;;;;;16.70;99.90;;;;;;4986683;28;20003;-57
2021/07/15 09:30:19;;;;;;;;;;;16.60;99.90;;;;;;4985713;28;20448;-57
2021/07/15 09:32:58;;;;;;;;;;;16.60;99.90;;;;;;4987126;28;20001;-58
2021/07/15 09:35:32;;;;;;;;;;;16.60;99.90;;;;;;4986130;28;19997;-58
2021/07/15 09:38:30;;;;;;;;;;;16.60;99.90;;;;;;4986982;28;20020;-56
2021/07/15 09:40:57;;;;;;;;;;;16.70;99.90;;;;;;4965197;28;20082;-56
2021/07/15 09:43:22;;;;;;;;;;;16.60;99.90;;;;;;4984485;28;19987;-56
2021/07/15 09:45:51;;;;;;;;;;;16.60;99.90;;;;;;4981883;28;19986;-57
2021/07/15 09:48:18;;;;;;;;;;;16.70;99.90;;;;;;4982047;28;20096;-55
2021/07/15 09:50:44;;;;;;;;;;;16.70;99.90;;;;;;4981152;28;19986;-57
2021/07/15 09:53:29;;;;;;;;;;;16.70;99.90;;;;;;4981580;28;20022;-56
2021/07/15 09:56:01;;;;;;;;;;;16.70;99.90;;;;;;4984194;28;20082;-58
2021/07/15 09:58:31;;;;;;;;;;;16.70;99.90;;;;;;4983584;28;19986;-58
2021/07/15 10:01:10;;;;;;;;;;;16.70;99.90;;;;;;4984522;28;20389;-57
2021/07/15 10:03:37;;;;;;;;;;;16.80;99.90;;;;;;4982988;28;20021;-58
2021/07/15 10:06:03;;;;;;;;;;;16.80;99.90;;;;;;4985850;28;20029;-58
2021/07/15 10:08:29;;;;;;;;;;;16.90;99.90;;;;;;4997117;28;20453;-57
2021/07/15 10:11:12;;;;;;;;;;;16.90;99.90;;;;;;4985187;28;19991;-57
2021/07/15 10:13:38;;;;;;;;;;;16.90;99.90;;;;;;4986999;28;19982;-58
2021/07/15 10:16:07;;;;;;;;;;;16.90;99.90;;;;;;4988773;28;19990;-57
2021/07/15 10:18:34;;;;;;;;;;;17.10;99.90;;;;;;4990273;28;19987;-57
2021/07/15 10:20:59;;;;;;;;;;;17.10;99.90;;;;;;4989801;28;19994;-58
2021/07/15 10:23:35;;;;;;;;;;;17.10;99.90;;;;;;4990849;28;19991;-58
2021/07/15 10:26:01;;;;;;;;;;;17.10;99.90;;;;;;4990062;28;19987;-56
2021/07/15 10:28:27;;;;;;;;;;;17.10;99.90;;;;;;4990378;28;20571;-57
2021/07/15 10:30:55;;;;;;;;;;;17.20;99.90;;;;;;4988945;28;20014;-57
2021/07/15 10:33:21;;;;;;;;;;;17.20;99.90;;;;;;4990316;28;20419;-57
2021/07/15 10:35:47;;;;;;;;;;;17.10;99.90;;;;;;4989432;28;20070;-58
2021/07/15 10:38:13;;;;;;;;;;;17.10;99.90;;;;;;4989924;28;19990;-57
2021/07/15 10:40:39;;;;;;;;;;;17.00;99.90;;;;;;4990121;28;19983;-58
2021/07/15 10:43:04;;;;;;;;;;;17.10;99.90;;;;;;4989365;28;19997;-58
2021/07/15 10:45:31;;;;;;;;;;;17.10;99.90;;;;;;4989796;28;19991;-58
2021/07/15 10:47:57;;;;;;;;;;;17.20;99.90;;;;;;4989848;28;20007;-57
2021/07/15 10:50:23;;;;;;;;;;;17.10;99.90;;;;;;4989880;28;19991;-57
2021/07/15 10:52:49;;;;;;;;;;;17.10;99.90;;;;;;4989315;28;20046;-56
2021/07/15 10:55:14;;;;;;;;;;;17.10;99.90;;;;;;4989563;28;19987;-56
2021/07/15 10:57:40;;;;;;;;;;;17.10;99.90;;;;;;4989455;28;19987;-57
2021/07/15 11:00:24;;;;;;;;;;;17.10;99.90;;;;;;4989020;28;19998;-57
2021/07/15 11:03:09;;;;;;;;;;;17.10;99.90;;;;;;4989336;28;19992;-58
2021/07/15 11:05:44;;;;;;;;;;;17.10;99.90;;;;;;4989533;28;19987;-57
2021/07/15 11:08:11;;;;;;;;;;;17.10;99.90;;;;;;4989159;28;20009;-57
2021/07/15 11:10:36;;;;;;;;;;;17.10;99.90;;;;;;4989241;28;20108;-57
2021/07/15 11:13:04;;;;;;;;;;;17.10;99.90;;;;;;4989173;28;20153;-57
2021/07/15 11:15:46;;;;;;;;;;;17.10;99.90;;;;;;4989175;28;20084;-56
2021/07/15 11:18:31;;;;;;;;;;;17.10;99.90;;;;;;4988805;28;20040;-56
2021/07/15 11:21:17;;;;;;;;;;;17.20;99.90;;;;;;4989076;28;20346;-57
2021/07/15 11:23:42;;;;;;;;;;;17.10;99.90;;;;;;4988776;28;19990;-57
2021/07/15 11:26:27;;;;;;;;;;;17.10;99.90;;;;;;4989007;28;19983;-56
2021/07/15 11:28:53;;;;;;;;;;;17.10;99.90;;;;;;4989115;28;20010;-56
2021/07/15 11:31:37;;;;;;;;;;;17.20;99.90;;;;;;4989157;28;20342;-57
2021/07/15 11:34:02;;;;;;;;;;;17.10;99.90;;;;;;4988422;28;19987;-56
2021/07/15 11:36:30;;;;;;;;;;;16.90;99.90;;;;;;4988911;28;19991;-55
2021/07/15 11:39:00;;;;;;;;;;;16.90;99.90;;;;;;4989125;28;19987;-56
2021/07/15 11:41:44;;;;;;;;;;;16.90;99.90;;;;;;4989034;28;20045;-56
2021/07/15 11:44:13;;;;;;;;;;;16.90;99.90;;;;;;4988680;28;20078;-56
2021/07/15 11:46:39;;;;;;;;;;;17.00;99.90;;;;;;4988751;28;20065;-57
2021/07/15 11:49:26;;;;;;;;;;;17.10;99.90;;;;;;5003112;28;20390;-57
2021/07/15 11:51:52;;;;;;;;;;;17.00;99.90;;;;;;4988612;28;19990;-57
2021/07/15 11:54:17;;;;;;;;;;;17.00;99.90;;;;;;4988311;28;20002;-57
2021/07/15 11:56:43;;;;;;;;;;;17.10;99.90;;;;;;4988421;28;19990;-57
2021/07/15 11:59:09;;;;;;;;;;;17.00;99.90;;;;;;4988297;28;20071;-57
2021/07/15 12:01:35;;;;;;;;;;;17.00;99.90;;;;;;4988192;28;20085;-57
2021/07/15 12:04:08;;;;;;;;;;;17.00;99.90;;;;;;4987750;28;19987;-58
2021/07/15 12:06:35;;;;;;;;;;;17.10;99.90;;;;;;4987874;28;19987;-56
2021/07/15 12:09:07;;;;;;;;;;;17.10;99.90;;;;;;4987489;28;20401;-57
2021/07/15 12:11:33;;;;;;;;;;;17.10;99.90;;;;;;4987943;28;19987;-57
2021/07/15 12:14:00;;;;;;;;;;;17.20;99.90;;;;;;4987892;28;20081;-57
2021/07/15 12:16:26;;;;;;;;;;;17.20;99.90;;;;;;4988662;28;19986;-56
2021/07/15 12:18:51;;;;;;;;;;;17.30;99.90;;;;;;4987676;28;20138;-57
2021/07/15 12:21:19;;;;;;;;;;;17.30;99.90;;;;;;4987759;28;19990;-56
2021/07/15 12:23:47;;;;;;;;;;;17.30;99.90;;;;;;4987159;28;19991;-57
2021/07/15 12:26:16;;;;;;;;;;;17.30;99.90;;;;;;4988381;28;20077;-55
2021/07/15 12:28:45;;;;;;;;;;;17.30;99.90;;;;;;4987662;28;20087;-57
2021/07/15 12:31:11;;;;;;;;;;;17.30;99.90;;;;;;4987742;28;19998;-57
2021/07/15 12:33:44;;;;;;;;;;;17.30;99.90;;;;;;4987016;28;19987;-57
2021/07/15 12:36:12;;;;;;;;;;;17.40;99.90;;;;;;4987744;28;20476;-57
2021/07/15 12:38:37;;;;;;;;;;;17.30;99.90;;;;;;4987744;28;19993;-57
2021/07/15 12:41:21;;;;;;;;;;;17.20;99.90;;;;;;4987546;28;20450;-56
2021/07/15 12:43:54;;;;;;;;;;;17.10;99.90;;;;;;4987068;28;19986;-56
2021/07/15 12:46:19;;;;;;;;;;;17.10;99.90;;;;;;4987797;28;19987;-56
2021/07/15 12:48:46;;;;;;;;;;;17.10;99.90;;;;;;4986867;28;20025;-56
2021/07/15 12:51:12;;;;;;;;;;;17.20;99.90;;;;;;4987217;28;19990;-57
2021/07/15 12:53:43;;;;;;;;;;;17.20;99.90;;;;;;4987277;28;19998;-56
2021/07/15 12:56:09;;;;;;;;;;;17.30;99.90;;;;;;4987172;28;19990;-57
2021/07/15 12:58:35;;;;;;;;;;;17.30;99.90;;;;;;4987141;28;20084;-57
2021/07/15 13:01:04;;;;;;;;;;;17.40;99.90;;;;;;4986939;28;20070;-56
2021/07/15 13:03:30;;;;;;;;;;;17.40;99.90;;;;;;4987120;28;20377;-56
2021/07/15 13:05:57;;;;;;;;;;;17.40;99.90;;;;;;4987184;28;20285;-57
2021/07/15 13:08:49;;;;;;;;;;;17.40;99.90;;;;;;4987287;28;20009;-58
2021/07/15 13:14:15;;;;;;;;;;;17.30;99.90;;;;;;4987011;28;20082;-56
2021/07/15 13:16:52;;;;;;;;;;;17.30;99.90;;;;;;4987173;28;19986;-57
2021/07/15 13:19:22;;;;;;;;;;;17.30;99.90;;;;;;4986921;28;20425;-56
2021/07/15 13:21:49;;;;;;;;;;;17.40;99.90;;;;;;4986625;28;20507;-57
2021/07/15 13:24:15;;;;;;;;;;;17.40;99.90;;;;;;4986640;28;20071;-55
2021/07/15 13:26:48;;;;;;;;;;;17.40;99.90;;;;;;4986781;28;20125;-57
2021/07/15 13:29:15;;;;;;;;;;;17.40;99.90;;;;;;4986867;28;20201;-58
2021/07/15 13:31:40;;;;;;;;;;;17.50;99.90;;;;;;4986719;28;20074;-58
2021/07/15 13:34:07;;;;;;;;;;;17.50;99.90;;;;;;4985865;28;20078;-59
2021/07/15 13:36:33;;;;;;;;;;;17.50;99.90;;;;;;4986420;28;19987;-58
2021/07/15 13:38:59;;;;;;;;;;;17.60;99.90;;;;;;4986359;28;20073;-58
2021/07/15 13:41:30;;;;;;;;;;;17.60;99.90;;;;;;5001607;28;20520;-58
2021/07/15 13:44:09;;;;;;;;;;;17.70;99.90;;;;;;4988360;28;19996;-58
2021/07/15 13:46:36;;;;;;;;;;;17.60;99.90;;;;;;4985109;28;19986;-58
2021/07/15 13:49:03;;;;;;;;;;;17.60;99.90;;;;;;4986961;28;20021;-58
2021/07/15 13:51:30;;;;;;;;;;;17.70;99.90;;;;;;4987559;28;19997;-57
2021/07/15 13:53:56;;;;;;;;;;;17.70;99.90;;;;;;4988081;28;20125;-57
2021/07/15 13:56:23;;;;;;;;;;;17.70;99.90;;;;;;4987683;28;20089;-57
2021/07/15 13:58:49;;;;;;;;;;;17.70;99.90;;;;;;4986880;28;19992;-56
2021/07/15 14:01:24;;;;;;;;;;;17.70;99.90;;;;;;4987864;28;19994;-57
2021/07/15 14:03:50;;;;;;;;;;;17.70;99.90;;;;;;4987581;28;20508;-57
2021/07/15 14:06:16;;;;;;;;;;;17.80;99.90;;;;;;4987919;28;20101;-57
2021/07/15 14:08:41;;;;;;;;;;;17.80;99.90;;;;;;4985577;28;20018;-58
2021/07/15 14:11:13;;;;;;;;;;;17.80;99.90;;;;;;4984791;28;20111;-58
2021/07/15 14:13:39;;;;;;;;;;;17.80;99.90;;;;;;4987971;28;20081;-58
2021/07/15 14:16:05;;;;;;;;;;;17.70;99.90;;;;;;4987429;28;20033;-57
2021/07/15 14:18:31;;;;;;;;;;;17.70;99.90;;;;;;4987781;28;19983;-57
2021/07/15 14:21:01;;;;;;;;;;;17.80;99.90;;;;;;4987968;28;19990;-57
2021/07/15 14:23:28;;;;;;;;;;;17.80;99.90;;;;;;5001976;28;20372;-58
2021/07/15 14:25:57;;;;;;;;;;;17.80;99.90;;;;;;4987806;28;20026;-57
2021/07/15 14:28:23;;;;;;;;;;;17.80;99.90;;;;;;4985251;28;20007;-58